Strona główna
METAR-TAF:

METAR-TAF

Lotnisko :

Port lotniczy Larnaka

Larnaka, Cypr

Szerokość geograficzna: 34-53N, Długość geograficzna: 033-38E, wysokość: 2 m

Aktualna obserwacja pogody

Raport powstał 25 minut temu, godzina 08:00 UTC
Wiatr 9 kt od północny wschód, zmienny między północ i wschodnio-północny wschód
Temperatura 15°C
Wilgotność 59%
Ciśnienie 1024 hPa
Widzialność 10 km lub więcej
Mało chmury na wysokości 2000 ft

METAR: LCLK 230800Z 04009KT 360V060 9999 FEW020 15/07 Q1024 NOSIG

czas: 10:25 (08:25 UTC)

Prognoza

Raport powstał 2 godziny i 55 minut temu, godzina 05:30 UTC
Prognoza ważna od 23 godzina 06 UTC do 24 godzina 06 UTC
Wiatr 12 kt od północny wschód
Widzialność 10 km lub więcej
Mało chmury na wysokości 3000 ft
Stopniowe zmiany
od 23 godzina 20 UTC do 23 godzina 23 UTC
Wiatr 9 kt od północ

TAF: LCLK 230530Z 2306/2406 05012KT 9999 FEW030 BECMG 2320/2323 35009KT

Obserwacja i prognoza pogody dla ponad 4000 lotnisk (raport METAR i TAF).

Dostępne stacje oznaczono żółtymi i czerwonymi punktami na mapie.

Najedź kursorem aby zobaczyć nazwę stacji.

Kliknij aby zobaczyć obserwacje i prognozy pogody.

Aby zmienić mapę: kliknij na zielony przycisk z czarnym krzyżykiem, aby powiększyć; na zielony przycisk z myślnikiem, aby pomniejszyć; na zielone strzałki, aby przejść do map sąsiednich.


METAR-TAF: